sensor_id;sensor_type;location;lat;lon;timestamp;temperature;humidity
3186;DHT22;1604;53.700;10.252;2023-04-03T00:01:21;-1.30;99.90
3186;DHT22;1604;53.700;10.252;2023-04-03T00:04:22;-1.30;99.90
3186;DHT22;1604;53.700;10.252;2023-04-03T00:07:26;-1.30;99.90
3186;DHT22;1604;53.700;10.252;2023-04-03T00:10:28;-1.40;99.90
3186;DHT22;1604;53.700;10.252;2023-04-03T00:13:30;-1.40;99.90
3186;DHT22;1604;53.700;10.252;2023-04-03T00:16:32;-1.40;99.90
3186;DHT22;1604;53.700;10.252;2023-04-03T00:19:34;-1.50;99.90
3186;DHT22;1604;53.700;10.252;2023-04-03T00:22:38;-1.50;99.90
3186;DHT22;1604;53.700;10.252;2023-04-03T00:25:40;-1.50;99.90
3186;DHT22;1604;53.700;10.252;2023-04-03T00:28:42;-1.60;99.90
3186;DHT22;1604;53.700;10.252;2023-04-03T00:31:44;-1.60;99.90
3186;DHT22;1604;53.700;10.252;2023-04-03T00:34:45;-1.60;99.90
3186;DHT22;1604;53.700;10.252;2023-04-03T00:37:50;-1.70;99.90
3186;DHT22;1604;53.700;10.252;2023-04-03T00:40:53;-1.70;99.90
3186;DHT22;1604;53.700;10.252;2023-04-03T00:43:55;-1.70;99.90
3186;DHT22;1604;53.700;10.252;2023-04-03T00:46:56;-1.70;99.90
3186;DHT22;1604;53.700;10.252;2023-04-03T00:49:58;-1.80;99.90
3186;DHT22;1604;53.700;10.252;2023-04-03T00:53:02;-1.80;99.90
3186;DHT22;1604;53.700;10.252;2023-04-03T00:56:06;-1.80;99.90
3186;DHT22;1604;53.700;10.252;2023-04-03T00:59:12;-1.80;99.90
3186;DHT22;1604;53.700;10.252;2023-04-03T01:02:15;-1.90;99.90
3186;DHT22;1604;53.700;10.252;2023-04-03T01:05:17;-1.90;99.90
3186;DHT22;1604;53.700;10.252;2023-04-03T01:08:21;-1.90;99.90
3186;DHT22;1604;53.700;10.252;2023-04-03T01:11:23;-1.90;99.90
3186;DHT22;1604;53.700;10.252;2023-04-03T01:14:25;-2.00;99.90
3186;DHT22;1604;53.700;10.252;2023-04-03T01:17:30;-2.00;99.90
3186;DHT22;1604;53.700;10.252;2023-04-03T01:24:33;-2.10;99.90
3186;DHT22;1604;53.700;10.252;2023-04-03T01:27:35;-2.10;99.90
3186;DHT22;1604;53.700;10.252;2023-04-03T01:30:43;-2.10;99.90
3186;DHT22;1604;53.700;10.252;2023-04-03T01:33:48;-2.10;99.90
3186;DHT22;1604;53.700;10.252;2023-04-03T01:36:51;-2.10;99.90
3186;DHT22;1604;53.700;10.252;2023-04-03T01:39:53;-2.10;99.90
3186;DHT22;1604;53.700;10.252;2023-04-03T01:42:55;-2.20;99.90
3186;DHT22;1604;53.700;10.252;2023-04-03T01:45:56;-2.20;99.90
3186;DHT22;1604;53.700;10.252;2023-04-03T01:49:00;-2.20;99.90
3186;DHT22;1604;53.700;10.252;2023-04-03T01:52:02;-2.30;99.90
3186;DHT22;1604;53.700;10.252;2023-04-03T01:55:05;-2.30;99.90
3186;DHT22;1604;53.700;10.252;2023-04-03T01:58:07;-2.30;99.90
3186;DHT22;1604;53.700;10.252;2023-04-03T02:01:09;-2.30;99.90
3186;DHT22;1604;53.700;10.252;2023-04-03T02:04:12;-2.40;99.90
3186;DHT22;1604;53.700;10.252;2023-04-03T02:07:14;-2.40;99.90
3186;DHT22;1604;53.700;10.252;2023-04-03T02:10:16;-2.40;99.90
3186;DHT22;1604;53.700;10.252;2023-04-03T02:13:19;-2.50;99.90
3186;DHT22;1604;53.700;10.252;2023-04-03T02:16:20;-2.50;99.90
3186;DHT22;1604;53.700;10.252;2023-04-03T02:19:24;-2.60;99.90
3186;DHT22;1604;53.700;10.252;2023-04-03T02:22:26;-2.60;99.90
3186;DHT22;1604;53.700;10.252;2023-04-03T02:25:28;-2.60;99.90
3186;DHT22;1604;53.700;10.252;2023-04-03T02:28:30;-2.60;99.90
3186;DHT22;1604;53.700;10.252;2023-04-03T02:31:31;-2.70;99.90
3186;DHT22;1604;53.700;10.252;2023-04-03T02:34:38;-2.70;99.90
3186;DHT22;1604;53.700;10.252;2023-04-03T02:37:40;-2.70;99.90
3186;DHT22;1604;53.700;10.252;2023-04-03T02:40:42;-2.70;99.90
3186;DHT22;1604;53.700;10.252;2023-04-03T02:43:44;-2.80;99.90
3186;DHT22;1604;53.700;10.252;2023-04-03T02:46:45;-2.80;99.90
3186;DHT22;1604;53.700;10.252;2023-04-03T02:49:49;-2.80;99.90
3186;DHT22;1604;53.700;10.252;2023-04-03T02:52:51;-2.80;99.90
3186;DHT22;1604;53.700;10.252;2023-04-03T02:55:53;-2.90;99.90
3186;DHT22;1604;53.700;10.252;2023-04-03T02:58:58;-2.90;99.90
3186;DHT22;1604;53.700;10.252;2023-04-03T03:01:59;-2.90;99.90
3186;DHT22;1604;53.700;10.252;2023-04-03T03:05:03;-2.90;99.90
3186;DHT22;1604;53.700;10.252;2023-04-03T03:08:06;-2.90;99.90
3186;DHT22;1604;53.700;10.252;2023-04-03T03:11:08;-2.90;99.90
3186;DHT22;1604;53.700;10.252;2023-04-03T03:14:10;-3.00;99.90
3186;DHT22;1604;53.700;10.252;2023-04-03T03:17:12;-3.00;99.90
3186;DHT22;1604;53.700;10.252;2023-04-03T03:20:16;-3.00;99.90
3186;DHT22;1604;53.700;10.252;2023-04-03T03:23:17;-3.10;99.90
3186;DHT22;1604;53.700;10.252;2023-04-03T03:26:19;-3.10;99.90
3186;DHT22;1604;53.700;10.252;2023-04-03T03:29:22;-3.10;99.90
3186;DHT22;1604;53.700;10.252;2023-04-03T03:32:23;-3.10;99.90
3186;DHT22;1604;53.700;10.252;2023-04-03T03:35:27;-3.10;99.90
3186;DHT22;1604;53.700;10.252;2023-04-03T03:38:29;-3.20;99.90
3186;DHT22;1604;53.700;10.252;2023-04-03T03:41:31;-3.20;99.90
3186;DHT22;1604;53.700;10.252;2023-04-03T03:44:32;-3.20;99.90
3186;DHT22;1604;53.700;10.252;2023-04-03T03:47:35;-3.20;99.90
3186;DHT22;1604;53.700;10.252;2023-04-03T03:50:38;-3.20;99.90
3186;DHT22;1604;53.700;10.252;2023-04-03T03:53:40;-3.30;99.90
3186;DHT22;1604;53.700;10.252;2023-04-03T03:56:42;-3.30;99.90
3186;DHT22;1604;53.700;10.252;2023-04-03T03:59:44;-3.30;99.90
3186;DHT22;1604;53.700;10.252;2023-04-03T04:02:46;-3.40;99.90
3186;DHT22;1604;53.700;10.252;2023-04-03T04:05:49;-3.40;99.90
3186;DHT22;1604;53.700;10.252;2023-04-03T04:08:51;-3.40;99.90
3186;DHT22;1604;53.700;10.252;2023-04-03T04:11:53;-3.50;99.90
3186;DHT22;1604;53.700;10.252;2023-04-03T04:14:55;-3.50;99.90
3186;DHT22;1604;53.700;10.252;2023-04-03T04:17:57;-3.50;99.90
3186;DHT22;1604;53.700;10.252;2023-04-03T04:21:00;-3.60;99.90
3186;DHT22;1604;53.700;10.252;2023-04-03T04:24:02;-3.60;99.90
3186;DHT22;1604;53.700;10.252;2023-04-03T04:27:04;-3.60;99.90
3186;DHT22;1604;53.700;10.252;2023-04-03T04:30:07;-3.60;99.90
3186;DHT22;1604;53.700;10.252;2023-04-03T04:33:09;-3.60;99.90
3186;DHT22;1604;53.700;10.252;2023-04-03T04:36:13;-3.70;99.90
3186;DHT22;1604;53.700;10.252;2023-04-03T04:39:16;-3.70;99.90
3186;DHT22;1604;53.700;10.252;2023-04-03T04:42:17;-3.70;99.90
3186;DHT22;1604;53.700;10.252;2023-04-03T04:45:20;-3.80;99.90
3186;DHT22;1604;53.700;10.252;2023-04-03T04:48:21;-3.80;99.90
3186;DHT22;1604;53.700;10.252;2023-04-03T04:51:25;-3.80;99.90
3186;DHT22;1604;53.700;10.252;2023-04-03T04:54:27;-3.80;99.90
3186;DHT22;1604;53.700;10.252;2023-04-03T04:57:29;-3.80;99.90
3186;DHT22;1604;53.700;10.252;2023-04-03T05:00:31;-3.80;99.90
3186;DHT22;1604;53.700;10.252;2023-04-03T05:03:33;-3.80;99.90
3186;DHT22;1604;53.700;10.252;2023-04-03T05:06:36;-3.80;99.90
3186;DHT22;1604;53.700;10.252;2023-04-03T05:09:38;-3.80;99.90
3186;DHT22;1604;53.700;10.252;2023-04-03T05:12:45;-3.80;99.90
3186;DHT22;1604;53.700;10.252;2023-04-03T05:15:47;-3.80;99.90
3186;DHT22;1604;53.700;10.252;2023-04-03T05:18:49;-3.80;99.90
3186;DHT22;1604;53.700;10.252;2023-04-03T05:21:52;-3.80;99.90
3186;DHT22;1604;53.700;10.252;2023-04-03T05:24:55;-3.80;99.90
3186;DHT22;1604;53.700;10.252;2023-04-03T05:27:57;-3.80;99.90
3186;DHT22;1604;53.700;10.252;2023-04-03T05:30:59;-3.80;99.90
3186;DHT22;1604;53.700;10.252;2023-04-03T05:34:01;-3.80;99.90
3186;DHT22;1604;53.700;10.252;2023-04-03T05:37:05;-3.80;99.90
3186;DHT22;1604;53.700;10.252;2023-04-03T05:40:08;-3.80;99.90
3186;DHT22;1604;53.700;10.252;2023-04-03T05:43:10;-3.70;99.90
3186;DHT22;1604;53.700;10.252;2023-04-03T05:46:13;-3.70;99.90
3186;DHT22;1604;53.700;10.252;2023-04-03T05:49:15;-3.60;99.90
3186;DHT22;1604;53.700;10.252;2023-04-03T05:52:22;-3.50;99.90
3186;DHT22;1604;53.700;10.252;2023-04-03T05:55:24;-3.50;99.90
3186;DHT22;1604;53.700;10.252;2023-04-03T05:58:26;-3.40;99.90
3186;DHT22;1604;53.700;10.252;2023-04-03T06:01:28;-3.30;99.90
3186;DHT22;1604;53.700;10.252;2023-04-03T06:04:30;-3.20;99.90
3186;DHT22;1604;53.700;10.252;2023-04-03T06:07:34;-2.90;99.90
3186;DHT22;1604;53.700;10.252;2023-04-03T06:10:36;-2.80;99.90
3186;DHT22;1604;53.700;10.252;2023-04-03T06:13:38;-2.40;99.90
3186;DHT22;1604;53.700;10.252;2023-04-03T06:16:40;-2.20;99.90
3186;DHT22;1604;53.700;10.252;2023-04-03T06:19:42;-1.80;99.90
3186;DHT22;1604;53.700;10.252;2023-04-03T06:22:46;-1.30;99.90
3186;DHT22;1604;53.700;10.252;2023-04-03T06:25:47;-1.00;99.90
3186;DHT22;1604;53.700;10.252;2023-04-03T06:28:49;-0.70;99.90
3186;DHT22;1604;53.700;10.252;2023-04-03T06:31:51;-0.40;99.90
3186;DHT22;1604;53.700;10.252;2023-04-03T06:34:53;-0.10;99.90
3186;DHT22;1604;53.700;10.252;2023-04-03T06:37:57;0.20;99.90
3186;DHT22;1604;53.700;10.252;2023-04-03T06:40:59;0.40;99.90
3186;DHT22;1604;53.700;10.252;2023-04-03T06:44:01;0.80;99.90
3186;DHT22;1604;53.700;10.252;2023-04-03T06:47:04;1.10;99.90
3186;DHT22;1604;53.700;10.252;2023-04-03T06:50:06;1.50;99.90
3186;DHT22;1604;53.700;10.252;2023-04-03T06:53:11;2.10;99.90
3186;DHT22;1604;53.700;10.252;2023-04-03T06:56:13;2.50;99.90
3186;DHT22;1604;53.700;10.252;2023-04-03T06:59:15;2.90;99.90
3186;DHT22;1604;53.700;10.252;2023-04-03T07:02:17;3.20;99.90
3186;DHT22;1604;53.700;10.252;2023-04-03T07:05:21;3.50;99.90
3186;DHT22;1604;53.700;10.252;2023-04-03T07:08:24;3.70;99.90
3186;DHT22;1604;53.700;10.252;2023-04-03T07:11:26;4.00;99.90
3186;DHT22;1604;53.700;10.252;2023-04-03T07:14:28;4.10;99.90
3186;DHT22;1604;53.700;10.252;2023-04-03T07:17:30;4.30;99.90
3186;DHT22;1604;53.700;10.252;2023-04-03T07:20:33;4.50;99.90
3186;DHT22;1604;53.700;10.252;2023-04-03T07:23:36;4.70;99.90
3186;DHT22;1604;53.700;10.252;2023-04-03T07:26:38;4.90;99.90
3186;DHT22;1604;53.700;10.252;2023-04-03T07:29:40;5.10;99.90
3186;DHT22;1604;53.700;10.252;2023-04-03T07:32:42;5.30;99.90
3186;DHT22;1604;53.700;10.252;2023-04-03T07:35:44;5.50;99.90
3186;DHT22;1604;53.700;10.252;2023-04-03T07:38:48;5.80;99.90
3186;DHT22;1604;53.700;10.252;2023-04-03T07:41:51;6.00;99.10
3186;DHT22;1604;53.700;10.252;2023-04-03T07:44:53;6.20;98.60
3186;DHT22;1604;53.700;10.252;2023-04-03T07:47:54;6.40;96.70
3186;DHT22;1604;53.700;10.252;2023-04-03T07:50:59;6.60;96.00
3186;DHT22;1604;53.700;10.252;2023-04-03T07:54:03;6.90;94.70
3186;DHT22;1604;53.700;10.252;2023-04-03T07:57:05;7.10;92.10
3186;DHT22;1604;53.700;10.252;2023-04-03T08:00:08;7.20;91.10
3186;DHT22;1604;53.700;10.252;2023-04-03T08:03:11;7.40;86.40
3186;DHT22;1604;53.700;10.252;2023-04-03T08:06:13;7.60;83.40
3186;DHT22;1604;53.700;10.252;2023-04-03T08:09:16;7.70;83.50
3186;DHT22;1604;53.700;10.252;2023-04-03T08:12:19;7.70;82.70
3186;DHT22;1604;53.700;10.252;2023-04-03T08:15:21;7.80;81.80
3186;DHT22;1604;53.700;10.252;2023-04-03T08:18:23;7.90;80.20
3186;DHT22;1604;53.700;10.252;2023-04-03T08:21:27;8.00;81.50
3186;DHT22;1604;53.700;10.252;2023-04-03T08:24:30;8.10;76.40
3186;DHT22;1604;53.700;10.252;2023-04-03T08:27:32;8.20;75.90
3186;DHT22;1604;53.700;10.252;2023-04-03T08:30:34;8.30;76.10
3186;DHT22;1604;53.700;10.252;2023-04-03T08:33:36;8.30;77.90
3186;DHT22;1604;53.700;10.252;2023-04-03T08:36:38;8.30;75.40
3186;DHT22;1604;53.700;10.252;2023-04-03T08:39:42;8.30;72.40
3186;DHT22;1604;53.700;10.252;2023-04-03T08:42:54;8.40;69.10
3186;DHT22;1604;53.700;10.252;2023-04-03T08:46:01;8.50;65.20
3186;DHT22;1604;53.700;10.252;2023-04-03T08:49:11;8.60;64.00
3186;DHT22;1604;53.700;10.252;2023-04-03T08:52:19;8.70;65.60
3186;DHT22;1604;53.700;10.252;2023-04-03T08:55:27;8.70;65.50
3186;DHT22;1604;53.700;10.252;2023-04-03T08:58:33;8.80;63.80
3186;DHT22;1604;53.700;10.252;2023-04-03T09:01:40;8.90;62.00
3186;DHT22;1604;53.700;10.252;2023-04-03T09:04:43;9.00;60.80
3186;DHT22;1604;53.700;10.252;2023-04-03T09:07:47;9.00;60.70
3186;DHT22;1604;53.700;10.252;2023-04-03T09:10:59;9.00;61.80
3186;DHT22;1604;53.700;10.252;2023-04-03T09:14:12;9.00;60.60
3186;DHT22;1604;53.700;10.252;2023-04-03T09:17:22;9.10;62.40
3186;DHT22;1604;53.700;10.252;2023-04-03T09:20:38;9.00;62.20
3186;DHT22;1604;53.700;10.252;2023-04-03T09:23:44;9.00;60.10
3186;DHT22;1604;53.700;10.252;2023-04-03T09:26:52;9.10;57.00
3186;DHT22;1604;53.700;10.252;2023-04-03T09:29:56;9.20;60.80
3186;DHT22;1604;53.700;10.252;2023-04-03T09:32:59;9.10;61.30
3186;DHT22;1604;53.700;10.252;2023-04-03T09:36:01;9.00;60.90
3186;DHT22;1604;53.700;10.252;2023-04-03T09:39:04;8.90;60.80
3186;DHT22;1604;53.700;10.252;2023-04-03T09:42:18;8.90;60.40
3186;DHT22;1604;53.700;10.252;2023-04-03T09:45:23;9.00;62.70
3186;DHT22;1604;53.700;10.252;2023-04-03T09:48:26;9.00;62.40
3186;DHT22;1604;53.700;10.252;2023-04-03T09:51:29;9.00;64.50
3186;DHT22;1604;53.700;10.252;2023-04-03T09:54:36;9.20;62.50
3186;DHT22;1604;53.700;10.252;2023-04-03T09:57:42;9.30;63.50
3186;DHT22;1604;53.700;10.252;2023-04-03T10:00:54;9.60;60.00
3186;DHT22;1604;53.700;10.252;2023-04-03T10:04:09;9.70;62.60
3186;DHT22;1604;53.700;10.252;2023-04-03T10:07:32;9.90;60.60
3186;DHT22;1604;53.700;10.252;2023-04-03T10:10:34;10.00;61.10
3186;DHT22;1604;53.700;10.252;2023-04-03T10:13:50;10.30;62.90
3186;DHT22;1604;53.700;10.252;2023-04-03T10:16:57;10.70;60.40
3186;DHT22;1604;53.700;10.252;2023-04-03T10:20:07;10.90;59.70
3186;DHT22;1604;53.700;10.252;2023-04-03T10:23:16;11.00;59.30
3186;DHT22;1604;53.700;10.252;2023-04-03T10:26:29;11.20;57.20
3186;DHT22;1604;53.700;10.252;2023-04-03T10:29:40;11.40;55.10
3186;DHT22;1604;53.700;10.252;2023-04-03T10:32:58;11.60;57.50
3186;DHT22;1604;53.700;10.252;2023-04-03T10:36:10;11.50;56.90
3186;DHT22;1604;53.700;10.252;2023-04-03T10:39:20;11.40;58.00
3186;DHT22;1604;53.700;10.252;2023-04-03T10:42:32;11.10;57.80
3186;DHT22;1604;53.700;10.252;2023-04-03T10:45:52;10.70;58.70
3186;DHT22;1604;53.700;10.252;2023-04-03T10:49:16;10.50;59.40
3186;DHT22;1604;53.700;10.252;2023-04-03T10:52:24;10.40;60.20
3186;DHT22;1604;53.700;10.252;2023-04-03T10:55:34;10.20;60.80
3186;DHT22;1604;53.700;10.252;2023-04-03T10:58:40;9.90;61.30
3186;DHT22;1604;53.700;10.252;2023-04-03T11:01:48;9.70;60.50
3186;DHT22;1604;53.700;10.252;2023-04-03T11:04:55;9.50;59.40
3186;DHT22;1604;53.700;10.252;2023-04-03T11:08:04;9.30;58.50
3186;DHT22;1604;53.700;10.252;2023-04-03T11:11:14;9.30;58.70
3186;DHT22;1604;53.700;10.252;2023-04-03T11:14:24;9.20;57.80
3186;DHT22;1604;53.700;10.252;2023-04-03T11:17:33;8.90;58.10
3186;DHT22;1604;53.700;10.252;2023-04-03T11:20:37;8.70;58.50
3186;DHT22;1604;53.700;10.252;2023-04-03T11:23:41;8.60;59.30
3186;DHT22;1604;53.700;10.252;2023-04-03T11:26:43;8.60;59.50
3186;DHT22;1604;53.700;10.252;2023-04-03T11:29:46;8.90;59.50
3186;DHT22;1604;53.700;10.252;2023-04-03T11:36:22;9.40;62.20
3186;DHT22;1604;53.700;10.252;2023-04-03T11:39:28;9.70;60.10
3186;DHT22;1604;53.700;10.252;2023-04-03T11:42:35;9.90;57.60
3186;DHT22;1604;53.700;10.252;2023-04-03T11:45:50;10.20;56.10
3186;DHT22;1604;53.700;10.252;2023-04-03T11:48:53;10.10;58.00
3186;DHT22;1604;53.700;10.252;2023-04-03T11:51:56;10.00;58.70
3186;DHT22;1604;53.700;10.252;2023-04-03T11:54:58;10.10;54.80
3186;DHT22;1604;53.700;10.252;2023-04-03T11:58:11;10.30;56.50
3186;DHT22;1604;53.700;10.252;2023-04-03T12:01:42;10.50;57.30
3186;DHT22;1604;53.700;10.252;2023-04-03T12:05:24;10.60;54.10
3186;DHT22;1604;53.700;10.252;2023-04-03T12:08:28;10.80;55.40
3186;DHT22;1604;53.700;10.252;2023-04-03T12:11:31;10.90;57.00
3186;DHT22;1604;53.700;10.252;2023-04-03T12:14:41;10.90;54.50
3186;DHT22;1604;53.700;10.252;2023-04-03T12:17:43;10.90;55.10
3186;DHT22;1604;53.700;10.252;2023-04-03T12:20:56;10.80;55.20
3186;DHT22;1604;53.700;10.252;2023-04-03T12:24:04;10.90;55.20
3186;DHT22;1604;53.700;10.252;2023-04-03T12:27:26;10.90;55.20
3186;DHT22;1604;53.700;10.252;2023-04-03T12:30:30;10.80;53.00
3186;DHT22;1604;53.700;10.252;2023-04-03T12:33:43;10.70;53.40
3186;DHT22;1604;53.700;10.252;2023-04-03T12:37:00;10.50;54.20
3186;DHT22;1604;53.700;10.252;2023-04-03T12:40:10;10.70;54.40
3186;DHT22;1604;53.700;10.252;2023-04-03T12:43:38;10.70;54.90
3186;DHT22;1604;53.700;10.252;2023-04-03T12:46:47;10.60;55.90
3186;DHT22;1604;53.700;10.252;2023-04-03T12:49:49;10.70;53.80
3186;DHT22;1604;53.700;10.252;2023-04-03T12:52:59;10.70;55.20
3186;DHT22;1604;53.700;10.252;2023-04-03T12:56:20;10.50;53.70
3186;DHT22;1604;53.700;10.252;2023-04-03T12:59:24;10.50;53.80
3186;DHT22;1604;53.700;10.252;2023-04-03T13:02:28;10.70;54.90
3186;DHT22;1604;53.700;10.252;2023-04-03T13:05:31;10.70;55.60
3186;DHT22;1604;53.700;10.252;2023-04-03T13:08:35;10.70;52.70
3186;DHT22;1604;53.700;10.252;2023-04-03T13:11:40;10.60;53.90
3186;DHT22;1604;53.700;10.252;2023-04-03T13:14:51;10.50;55.00
3186;DHT22;1604;53.700;10.252;2023-04-03T13:17:54;10.50;52.40
3186;DHT22;1604;53.700;10.252;2023-04-03T13:21:05;10.50;52.20
3186;DHT22;1604;53.700;10.252;2023-04-03T13:24:09;10.50;54.10
3186;DHT22;1604;53.700;10.252;2023-04-03T13:27:12;10.50;54.30
3186;DHT22;1604;53.700;10.252;2023-04-03T13:30:27;10.50;54.10
3186;DHT22;1604;53.700;10.252;2023-04-03T13:33:31;10.50;53.80
3186;DHT22;1604;53.700;10.252;2023-04-03T13:36:36;10.50;53.50
3186;DHT22;1604;53.700;10.252;2023-04-03T13:39:39;10.50;55.00
3186;DHT22;1604;53.700;10.252;2023-04-03T13:42:42;10.40;53.90
3186;DHT22;1604;53.700;10.252;2023-04-03T13:45:59;10.40;55.60
3186;DHT22;1604;53.700;10.252;2023-04-03T13:49:18;10.40;56.10
3186;DHT22;1604;53.700;10.252;2023-04-03T13:52:26;10.30;55.40
3186;DHT22;1604;53.700;10.252;2023-04-03T13:55:32;10.20;53.70
3186;DHT22;1604;53.700;10.252;2023-04-03T13:58:35;10.00;54.10
3186;DHT22;1604;53.700;10.252;2023-04-03T14:01:42;9.80;55.80
3186;DHT22;1604;53.700;10.252;2023-04-03T14:04:48;9.70;56.90
3186;DHT22;1604;53.700;10.252;2023-04-03T14:07:51;9.70;57.60
3186;DHT22;1604;53.700;10.252;2023-04-03T14:10:54;9.60;57.40
3186;DHT22;1604;53.700;10.252;2023-04-03T14:14:00;9.50;56.90
3186;DHT22;1604;53.700;10.252;2023-04-03T14:17:14;9.30;58.20
3186;DHT22;1604;53.700;10.252;2023-04-03T14:20:18;9.30;58.80
3186;DHT22;1604;53.700;10.252;2023-04-03T14:23:21;9.30;60.40
3186;DHT22;1604;53.700;10.252;2023-04-03T14:26:24;9.30;60.80
3186;DHT22;1604;53.700;10.252;2023-04-03T14:29:27;9.40;60.50
3186;DHT22;1604;53.700;10.252;2023-04-03T14:32:29;9.40;60.20
3186;DHT22;1604;53.700;10.252;2023-04-03T14:35:32;9.20;61.00
3186;DHT22;1604;53.700;10.252;2023-04-03T14:38:34;9.10;61.90
3186;DHT22;1604;53.700;10.252;2023-04-03T14:41:37;9.00;62.40
3186;DHT22;1604;53.700;10.252;2023-04-03T14:44:39;8.90;61.10
3186;DHT22;1604;53.700;10.252;2023-04-03T14:47:44;9.00;60.90
3186;DHT22;1604;53.700;10.252;2023-04-03T14:50:49;9.10;61.50
3186;DHT22;1604;53.700;10.252;2023-04-03T14:53:52;9.10;62.10
3186;DHT22;1604;53.700;10.252;2023-04-03T14:56:59;9.10;61.90
3186;DHT22;1604;53.700;10.252;2023-04-03T15:00:03;8.90;60.80
3186;DHT22;1604;53.700;10.252;2023-04-03T15:03:05;8.70;60.40
3186;DHT22;1604;53.700;10.252;2023-04-03T15:06:09;8.50;60.30
3186;DHT22;1604;53.700;10.252;2023-04-03T15:09:19;8.30;62.00
3186;DHT22;1604;53.700;10.252;2023-04-03T15:12:23;8.30;63.80
3186;DHT22;1604;53.700;10.252;2023-04-03T15:15:29;8.20;64.80
3186;DHT22;1604;53.700;10.252;2023-04-03T15:18:35;8.30;62.70
3186;DHT22;1604;53.700;10.252;2023-04-03T15:21:39;8.30;62.70
3186;DHT22;1604;53.700;10.252;2023-04-03T15:24:41;8.10;64.10
3186;DHT22;1604;53.700;10.252;2023-04-03T15:27:44;7.90;65.00
3186;DHT22;1604;53.700;10.252;2023-04-03T15:30:46;7.80;65.70
3186;DHT22;1604;53.700;10.252;2023-04-03T15:33:48;7.70;65.90
3186;DHT22;1604;53.700;10.252;2023-04-03T15:36:51;7.60;67.40
3186;DHT22;1604;53.700;10.252;2023-04-03T15:39:52;7.60;67.70
3186;DHT22;1604;53.700;10.252;2023-04-03T15:42:56;7.60;69.40
3186;DHT22;1604;53.700;10.252;2023-04-03T15:45:58;7.50;68.90
3186;DHT22;1604;53.700;10.252;2023-04-03T15:52:10;7.30;70.40
3186;DHT22;1604;53.700;10.252;2023-04-03T15:58:27;6.90;71.50
3186;DHT22;1604;53.700;10.252;2023-04-03T16:01:29;6.80;70.70
3186;DHT22;1604;53.700;10.252;2023-04-03T16:23:34;6.20;76.20
3186;DHT22;1604;53.700;10.252;2023-04-03T16:32:53;5.90;77.50
3186;DHT22;1604;53.700;10.252;2023-04-03T17:01:16;5.30;76.70
3186;DHT22;1604;53.700;10.252;2023-04-03T17:04:19;5.30;75.30
3186;DHT22;1604;53.700;10.252;2023-04-03T17:07:23;5.20;75.10
3186;DHT22;1604;53.700;10.252;2023-04-03T17:13:36;5.10;76.30
3186;DHT22;1604;53.700;10.252;2023-04-03T17:19:52;5.00;77.00
3186;DHT22;1604;53.700;10.252;2023-04-03T17:26:06;4.90;76.60
3186;DHT22;1604;53.700;10.252;2023-04-03T18:13:36;3.80;85.70
3186;DHT22;1604;53.700;10.252;2023-04-03T18:16:38;3.70;86.10
3186;DHT22;1604;53.700;10.252;2023-04-03T18:19:40;3.60;86.40
3186;DHT22;1604;53.700;10.252;2023-04-03T18:22:42;3.60;86.50
3186;DHT22;1604;53.700;10.252;2023-04-03T18:25:45;3.50;87.10
3186;DHT22;1604;53.700;10.252;2023-04-03T18:28:54;3.40;87.40
3186;DHT22;1604;53.700;10.252;2023-04-03T18:31:58;3.40;87.60
3186;DHT22;1604;53.700;10.252;2023-04-03T18:35:01;3.30;87.90
3186;DHT22;1604;53.700;10.252;2023-04-03T18:38:03;3.20;88.30
3186;DHT22;1604;53.700;10.252;2023-04-03T18:41:06;3.20;88.90
3186;DHT22;1604;53.700;10.252;2023-04-03T18:44:12;3.10;89.40
3186;DHT22;1604;53.700;10.252;2023-04-03T18:47:15;3.00;89.70
3186;DHT22;1604;53.700;10.252;2023-04-03T18:50:17;3.00;90.10
3186;DHT22;1604;53.700;10.252;2023-04-03T18:53:19;2.90;90.80
3186;DHT22;1604;53.700;10.252;2023-04-03T18:56:21;2.80;91.20
3186;DHT22;1604;53.700;10.252;2023-04-03T18:59:25;2.80;91.80
3186;DHT22;1604;53.700;10.252;2023-04-03T19:02:27;2.70;92.20
3186;DHT22;1604;53.700;10.252;2023-04-03T19:05:30;2.70;92.60
3186;DHT22;1604;53.700;10.252;2023-04-03T19:08:32;2.60;93.20
3186;DHT22;1604;53.700;10.252;2023-04-03T19:11:34;2.50;93.70
3186;DHT22;1604;53.700;10.252;2023-04-03T19:14:38;2.50;94.00
3186;DHT22;1604;53.700;10.252;2023-04-03T19:17:40;2.40;94.60
3186;DHT22;1604;53.700;10.252;2023-04-03T19:20:42;2.40;95.10
3186;DHT22;1604;53.700;10.252;2023-04-03T19:23:44;2.30;95.50
3186;DHT22;1604;53.700;10.252;2023-04-03T19:26:48;2.30;95.90
3186;DHT22;1604;53.700;10.252;2023-04-03T19:29:51;2.20;96.20
3186;DHT22;1604;53.700;10.252;2023-04-03T19:32:54;2.10;96.60
3186;DHT22;1604;53.700;10.252;2023-04-03T19:35:56;2.10;96.80
3186;DHT22;1604;53.700;10.252;2023-04-03T19:38:58;2.00;97.00
3186;DHT22;1604;53.700;10.252;2023-04-03T19:42:00;2.00;97.00
3186;DHT22;1604;53.700;10.252;2023-04-03T19:45:05;1.90;97.00
3186;DHT22;1604;53.700;10.252;2023-04-03T19:48:07;1.80;97.40
3186;DHT22;1604;53.700;10.252;2023-04-03T19:51:09;1.80;97.40
3186;DHT22;1604;53.700;10.252;2023-04-03T19:54:11;1.70;97.50
3186;DHT22;1604;53.700;10.252;2023-04-03T19:57:13;1.60;97.60
3186;DHT22;1604;53.700;10.252;2023-04-03T20:00:18;1.60;97.80
3186;DHT22;1604;53.700;10.252;2023-04-03T20:03:20;1.50;98.30
3186;DHT22;1604;53.700;10.252;2023-04-03T20:06:22;1.50;98.30
3186;DHT22;1604;53.700;10.252;2023-04-03T20:09:24;1.40;98.20
3186;DHT22;1604;53.700;10.252;2023-04-03T20:12:26;1.30;98.20
3186;DHT22;1604;53.700;10.252;2023-04-03T20:15:30;1.20;98.10
3186;DHT22;1604;53.700;10.252;2023-04-03T20:18:39;1.20;97.90
3186;DHT22;1604;53.700;10.252;2023-04-03T20:21:41;1.10;98.00
3186;DHT22;1604;53.700;10.252;2023-04-03T20:24:44;1.10;98.10
3186;DHT22;1604;53.700;10.252;2023-04-03T20:27:45;1.00;98.20
3186;DHT22;1604;53.700;10.252;2023-04-03T20:30:50;1.00;97.90
3186;DHT22;1604;53.700;10.252;2023-04-03T20:33:54;0.90;98.20
3186;DHT22;1604;53.700;10.252;2023-04-03T20:36:56;0.90;97.80
3186;DHT22;1604;53.700;10.252;2023-04-03T20:39:58;0.80;98.00
3186;DHT22;1604;53.700;10.252;2023-04-03T20:43:00;0.80;98.00
3186;DHT22;1604;53.700;10.252;2023-04-03T20:46:04;0.80;98.00
3186;DHT22;1604;53.700;10.252;2023-04-03T20:49:06;0.70;98.20
3186;DHT22;1604;53.700;10.252;2023-04-03T20:52:08;0.70;98.30
3186;DHT22;1604;53.700;10.252;2023-04-03T20:55:10;0.70;98.20
3186;DHT22;1604;53.700;10.252;2023-04-03T20:58:12;0.60;98.60
3186;DHT22;1604;53.700;10.252;2023-04-03T21:01:17;0.50;99.00
3186;DHT22;1604;53.700;10.252;2023-04-03T21:04:23;0.50;99.70
3186;DHT22;1604;53.700;10.252;2023-04-03T21:21:49;0.10;99.90
3186;DHT22;1604;53.700;10.252;2023-04-03T21:24:52;0.00;99.90
3186;DHT22;1604;53.700;10.252;2023-04-03T21:27:54;0.00;99.90
3186;DHT22;1604;53.700;10.252;2023-04-03T21:30:56;0.00;99.90
3186;DHT22;1604;53.700;10.252;2023-04-03T21:33:59;-0.10;99.90
3186;DHT22;1604;53.700;10.252;2023-04-03T21:37:02;-0.20;99.90
3186;DHT22;1604;53.700;10.252;2023-04-03T21:40:06;-0.20;99.90
3186;DHT22;1604;53.700;10.252;2023-04-03T21:43:08;-0.20;99.90
3186;DHT22;1604;53.700;10.252;2023-04-03T21:46:10;-0.30;99.90
3186;DHT22;1604;53.700;10.252;2023-04-03T21:49:13;-0.40;99.90
3186;DHT22;1604;53.700;10.252;2023-04-03T21:52:15;-0.40;99.90
3186;DHT22;1604;53.700;10.252;2023-04-03T21:55:17;-0.50;99.90
3186;DHT22;1604;53.700;10.252;2023-04-03T21:58:19;-0.50;99.90
3186;DHT22;1604;53.700;10.252;2023-04-03T22:01:21;-0.60;99.90
3186;DHT22;1604;53.700;10.252;2023-04-03T22:04:24;-0.60;99.90
3186;DHT22;1604;53.700;10.252;2023-04-03T22:07:26;-0.70;99.90